Startpagina
METAR-TAF:

METAR-TAF

Vliegvelden :

Carcassonne, Frankrijk

breedte: 43-13N, lengte: 002-19E, hoogte: 130 m

Actueel weer

Dit bericht is 42 minuten geleden gemaakt, om 07:00 UTC
Wind 12 kt uit het westen, variërend tussen het zuidwesten en het westnoordwesten
Temperatuur 21°C
Vochtigheid 64%
Druk 1022 hPa
Zicht 10 km of meer
geen wolken onder 1500 m en geen cumulonimbus

METAR: LFMK 050700Z AUTO 27012KT 230V290 CAVOK 21/14 Q1022 NOSIG

Tijdstip: 09:42 (07:42 UTC)

Verwachting

Dit bericht is 2 uur en het 42 minuten geleden gemaakt, om 05:00 UTC
Verwachting geldig van 05 om 06 UTC tot 06 om 06 UTC
Wind 15 kt uit het westnoordwesten
Zicht 10 km of meer
geen wolken onder 1500 m en geen cumulonimbus
Wijzigt naar
van 05 om 21 UTC tot 05 om 23 UTC
Wind 15 kt uit het westnoordwesten met uitschieters tot 25 kt
Kans 30% :
Tijdelijke
van 06 om 03 UTC tot 06 om 06 UTC
Verspreide wolken op 1500 ft

TAF: LFMK 050500Z 0506/0606 30015KT CAVOK BECMG 0521/0523 30015G25KT PROB30 TEMPO 0603/0606 SCT015

Waarnemingen en weersverwachtingen van meer dan 4000 vliegvelden (METAR en TAF).

De beschikbare stations zijn de gele en rode punten op de kaart.

Ga met uw muis naar het station om de naam te zien.

Klik dan om waarnemingen en weersverwachtingen te zien.

kaart wijzigen: klik op de groene knoppen met een zwart kruis om in te zoomen, op de groene knop met een streepje om uit te zoomen of op de groene pijlen voor aangrenzende kaarten.


METAR-TAF: